Terminal Aerodrome Forecast
Issued by NWS Charleston, WV

Home | Current Version | Previous Version | Text Only | Print | Product List | Glossary On
Versions: 1 2 3 4 5 6 7 8 9 10 11 12 13 14 15 16 17 18 19 20 21 22 23 24
000
FTUS41 KRLX 281120
TAFBKW
TAF
KBKW 281120Z 2812/2912 00000KT P6SM SCT035
     FM281500 00000KT P6SM BKN035
     FM281800 VRB03KT P6SM VCTS BKN035CB
     FM282200 VRB03KT P6SM VCTS SCT025CB
     FM282300 00000KT P6SM SCT025
     FM290500 00000KT 6SM BR SCT035
     FM291100 00000KT P6SM SCT040=

USA.gov is the U.S. government's official web portal to all federal, state and local government web resources and services.